Time;durP1;ratioP1;P1;durP2;ratioP2;P2;SDS_P1;SDS_P2;PMS_P1;PMS_P2;Temp;Humidity;BMP_temperature;BMP_pressure;BME280_temperature;BME280_humidity;BME280_pressure;Samples;Min_cycle;Max_cycle;Signal;HPM_P1;HPM_P2
2022/03/13 00:01:32;;;;;;;12.90;7.90;;;;;;;9.84;65.35;101328.44;5255366;28;20604;-66
2022/03/13 00:04:03;;;;;;;11.77;8.13;;;;;;;9.85;65.13;101326.63;5239372;28;20040;-66
2022/03/13 00:06:36;;;;;;;9.48;6.80;;;;;;;9.88;64.86;101334.44;5254828;28;20029;-66
2022/03/13 00:09:12;;;;;;;12.82;8.20;;;;;;;9.88;64.74;101335.28;5250800;28;20033;-66
2022/03/13 00:11:44;;;;;;;11.13;7.68;;;;;;;9.86;65.42;101326.53;5243023;28;20082;-66
2022/03/13 00:14:16;;;;;;;11.05;6.97;;;;;;;9.87;64.93;101327.38;5250684;28;20045;-66
2022/03/13 00:16:50;;;;;;;10.40;6.97;;;;;;;9.86;65.39;101331.84;5244242;28;20036;-66
2022/03/13 00:19:22;;;;;;;11.88;7.50;;;;;;;9.86;64.87;101323.84;5246155;28;20066;-66
2022/03/13 00:21:53;;;;;;;10.48;7.13;;;;;;;9.86;65.08;101321.19;5246086;28;20468;-66
2022/03/13 00:24:25;;;;;;;12.00;7.65;;;;;;;9.83;66.03;101321.38;5250077;28;20029;-66
2022/03/13 00:26:56;;;;;;;11.90;7.30;;;;;;;9.82;65.79;101317.88;5245782;28;20475;-66
2022/03/13 00:29:29;;;;;;;11.25;7.97;;;;;;;9.84;65.25;101322.22;5245842;28;20087;-66
2022/03/13 00:32:00;;;;;;;11.15;7.72;;;;;;;9.82;65.24;101314.34;5249408;28;20035;-67
2022/03/13 00:34:31;;;;;;;13.30;7.82;;;;;;;9.74;66.35;101296.22;5240641;28;20463;-66
2022/03/13 00:37:03;;;;;;;12.23;8.10;;;;;;;9.79;65.04;101299.41;5252007;28;20479;-66
2022/03/13 00:39:34;;;;;;;9.95;7.15;;;;;;;9.77;65.95;101292.47;5248353;28;20039;-66
2022/03/13 00:42:06;;;;;;;11.10;7.60;;;;;;;9.76;65.37;101291.63;5249963;28;20025;-66
2022/03/13 00:44:37;;;;;;;11.55;7.43;;;;;;;9.70;67.05;101289.34;5250072;28;20039;-66
2022/03/13 00:47:09;;;;;;;11.15;7.15;;;;;;;9.74;65.42;101303.31;5247809;28;20033;-66
2022/03/13 00:49:40;;;;;;;12.10;7.15;;;;;;;9.68;66.02;101298.41;5241356;28;20029;-66
2022/03/13 00:52:11;;;;;;;10.43;7.55;;;;;;;9.62;65.83;101299.66;5248402;28;20083;-66
2022/03/13 00:54:43;;;;;;;10.85;7.10;;;;;;;9.60;66.01;101304.25;5240466;28;20029;-66
2022/03/13 00:57:17;;;;;;;11.23;7.38;;;;;;;9.58;66.44;101292.81;5242005;28;20470;-66
2022/03/13 00:59:48;;;;;;;10.77;7.63;;;;;;;9.55;66.28;101296.56;5241725;28;20435;-66
2022/03/13 01:02:19;;;;;;;11.85;7.15;;;;;;;9.52;66.44;101286.09;5239797;28;20031;-66
2022/03/13 01:04:51;;;;;;;9.75;7.15;;;;;;;9.49;66.73;101288.09;5244995;28;20110;-66
2022/03/13 01:07:22;;;;;;;12.35;7.85;;;;;;;9.48;66.85;101284.59;5246003;28;20017;-66
2022/03/13 01:09:54;;;;;;;9.77;7.10;;;;;;;9.49;67.05;101282.75;5239213;28;20056;-66
2022/03/13 01:12:25;;;;;;;10.93;7.32;;;;;;;9.46;68.25;101283.81;5249351;28;20025;-66
2022/03/13 01:14:56;;;;;;;15.50;8.40;;;;;;;9.41;68.87;101277.94;5242572;28;20148;-66
2022/03/13 01:17:27;;;;;;;10.48;7.78;;;;;;;9.35;68.27;101270.34;5249094;28;20037;-66
2022/03/13 01:19:59;;;;;;;11.43;7.38;;;;;;;9.28;68.24;101261.91;5244022;28;20345;-66
2022/03/13 01:22:30;;;;;;;9.75;7.18;;;;;;;9.22;69.62;101265.81;5253288;28;20159;-66
2022/03/13 01:25:02;;;;;;;10.85;8.00;;;;;;;9.16;68.59;101260.03;5241617;28;20025;-66
2022/03/13 01:27:35;;;;;;;12.60;7.65;;;;;;;9.05;69.46;101254.53;5247264;28;20420;-66
2022/03/13 01:30:07;;;;;;;12.30;7.22;;;;;;;9.08;69.22;101255.19;5242792;28;20025;-66
2022/03/13 01:32:38;;;;;;;10.07;6.82;;;;;;;9.02;69.08;101250.25;5250812;28;20029;-66
2022/03/13 01:35:09;;;;;;;11.73;7.65;;;;;;;8.98;69.40;101256.75;5247454;28;20700;-66
2022/03/13 01:37:41;;;;;;;11.23;7.15;;;;;;;8.95;70.01;101243.59;5244142;28;20033;-66
2022/03/13 01:40:16;;;;;;;9.55;6.57;;;;;;;8.90;69.75;101249.25;5245390;28;20410;-66
2022/03/13 01:42:49;;;;;;;12.75;7.20;;;;;;;8.87;70.61;101237.94;5245755;28;20087;-66
2022/03/13 01:45:25;;;;;;;10.15;6.60;;;;;;;8.83;70.53;101239.91;5244135;28;20454;-66
2022/03/13 01:47:57;;;;;;;10.25;6.90;;;;;;;8.77;70.94;101243.81;5252579;28;20569;-66
2022/03/13 01:50:29;;;;;;;9.63;6.10;;;;;;;8.72;70.83;101229.09;5249344;28;20028;-66
2022/03/13 01:53:00;;;;;;;9.70;6.60;;;;;;;8.70;70.92;101218.53;5241534;28;20037;-66
2022/03/13 01:55:32;;;;;;;8.68;6.32;;;;;;;8.67;71.26;101229.41;5251936;28;20044;-66
2022/03/13 01:58:03;;;;;;;10.25;6.40;;;;;;;8.58;72.32;101221.97;5253127;28;20040;-66
2022/03/13 02:00:34;;;;;;;9.60;6.32;;;;;;;8.53;72.73;101229.38;5248849;28;20025;-66
2022/03/13 02:03:06;;;;;;;9.32;6.43;;;;;;;8.48;73.08;101236.81;5249660;28;20029;-66
2022/03/13 02:05:37;;;;;;;9.77;6.38;;;;;;;8.42;72.86;101228.25;5244345;28;20031;-66
2022/03/13 02:08:13;;;;;;;9.50;6.68;;;;;;;8.41;72.44;101225.66;5250927;28;20067;-66
2022/03/13 02:10:45;;;;;;;11.90;6.63;;;;;;;8.35;73.09;101218.91;5242727;28;20701;-66
2022/03/13 02:13:18;;;;;;;8.73;6.45;;;;;;;8.38;73.34;101218.72;5248246;28;20053;-66
2022/03/13 02:15:53;;;;;;;9.00;6.45;;;;;;;8.39;72.92;101215.09;5242400;28;20107;-66
2022/03/13 02:18:24;;;;;;;9.52;6.50;;;;;;;8.35;72.96;101213.56;5249834;28;20068;-66
2022/03/13 02:20:55;;;;;;;10.32;5.90;;;;;;;8.37;73.29;101214.34;5245758;28;20527;-66
2022/03/13 02:23:28;;;;;;;9.80;5.90;;;;;;;8.35;74.10;101224.22;5243106;28;20109;-66
2022/03/13 02:26:02;;;;;;;9.40;6.25;;;;;;;8.30;74.50;101223.63;5246314;28;20037;-66
2022/03/13 02:28:36;;;;;;;11.52;6.88;;;;;;;8.33;74.35;101219.94;5246946;28;20032;-66
2022/03/13 02:31:18;;;;;;;12.02;7.82;;;;;;;8.33;73.60;101227.94;5248511;28;20036;-66
2022/03/13 02:33:52;;;;;;;11.60;8.45;;;;;;;8.34;73.36;101225.19;5244979;28;20039;-66
2022/03/13 02:36:32;;;;;;;11.50;7.70;;;;;;;8.32;73.65;101231.53;5241078;28;20041;-66
2022/03/13 02:39:06;;;;;;;14.38;9.35;;;;;;;8.35;73.61;101226.88;5245037;28;20032;-66
2022/03/13 02:41:40;;;;;;;13.45;8.43;;;;;;;8.35;73.42;101224.22;5243368;28;20127;-66
2022/03/13 02:44:14;;;;;;;11.77;8.10;;;;;;;8.35;73.39;101221.56;5242712;28;20025;-66
2022/03/13 02:46:45;;;;;;;12.57;8.98;;;;;;;8.30;75.13;101214.81;5237509;28;20052;-66
2022/03/13 02:49:18;;;;;;;15.48;9.57;;;;;;;8.32;74.98;101211.13;5245915;28;20550;-66
2022/03/13 02:51:53;;;;;;;13.73;8.95;;;;;;;8.32;75.66;101216.44;5247098;28;20140;-66
2022/03/13 02:54:25;;;;;;;13.30;9.18;;;;;;;8.22;76.42;101204.63;5246768;28;20404;-66
2022/03/13 02:56:57;;;;;;;13.80;9.95;;;;;;;8.23;78.21;101214.34;5245993;28;20148;-66
2022/03/13 02:59:29;;;;;;;13.52;9.52;;;;;;;8.17;78.65;101209.38;5242876;28;20033;-66
2022/03/13 03:02:02;;;;;;;14.57;10.05;;;;;;;8.11;78.62;101209.75;5240005;28;20110;-66
2022/03/13 03:04:33;;;;;;;14.65;10.20;;;;;;;8.08;80.04;101207.28;5242984;28;20028;-66
2022/03/13 03:07:05;;;;;;;14.57;10.50;;;;;;;8.10;79.63;101205.41;5238823;28;20025;-66
2022/03/13 03:09:36;;;;;;;16.15;10.35;;;;;;;8.06;81.20;101199.41;5242103;28;20399;-66
2022/03/13 03:12:09;;;;;;;16.65;11.90;;;;;;;8.01;80.41;101189.03;5245483;28;20033;-66
2022/03/13 03:14:40;;;;;;;17.48;11.43;;;;;;;8.02;80.59;101189.91;5240772;28;20091;-66
2022/03/13 03:17:11;;;;;;;16.90;11.95;;;;;;;7.97;82.70;101189.34;5243440;28;20131;-66
2022/03/13 03:19:43;;;;;;;17.80;12.18;;;;;;;7.99;82.81;101193.59;5238944;28;20036;-66
2022/03/13 03:22:15;;;;;;;18.33;12.52;;;;;;;7.92;83.81;101192.28;5251452;28;20092;-66
2022/03/13 03:24:48;;;;;;;18.25;12.00;;;;;;;7.90;83.24;101194.16;5249617;28;20422;-66
2022/03/13 03:27:19;;;;;;;18.30;12.40;;;;;;;7.85;83.22;101196.22;5252990;28;20036;-66
2022/03/13 03:29:50;;;;;;;16.38;12.27;;;;;;;7.81;83.66;101190.25;5250264;28;20028;-66
2022/03/13 03:32:22;;;;;;;19.35;12.68;;;;;;;7.81;84.06;101178.78;5241146;28;20041;-66
2022/03/13 03:34:53;;;;;;;20.10;13.35;;;;;;;7.78;86.33;101179.78;5245927;28;20399;-66
2022/03/13 03:37:25;;;;;;;16.73;12.27;;;;;;;7.77;85.76;101180.75;5250409;28;20536;-66
2022/03/13 03:39:56;;;;;;;18.75;12.70;;;;;;;7.78;86.55;101181.59;5251808;28;20037;-66
2022/03/13 03:42:27;;;;;;;20.77;13.02;;;;;;;7.74;87.23;101182.72;5244666;28;20450;-66
2022/03/13 03:44:59;;;;;;;19.23;13.15;;;;;;;7.65;88.59;101190.31;5239915;28;20735;-66
2022/03/13 03:47:30;;;;;;;19.42;12.88;;;;;;;7.71;86.38;101185.56;5252586;28;20029;-66
2022/03/13 03:50:02;;;;;;;18.13;12.85;;;;;;;7.72;86.73;101184.63;5249773;28;20044;-66
2022/03/13 03:52:34;;;;;;;18.80;12.73;;;;;;;7.74;86.83;101193.34;5245153;28;20025;-66
2022/03/13 03:55:05;;;;;;;18.15;13.20;;;;;;;7.64;89.09;101185.06;5246167;28;20039;-66
2022/03/13 03:57:37;;;;;;;20.55;12.77;;;;;;;7.73;88.29;101187.19;5244413;28;20040;-66
2022/03/13 04:00:09;;;;;;;20.13;13.52;;;;;;;7.75;87.71;101181.81;5248703;28;20043;-66
2022/03/13 04:02:42;;;;;;;21.08;13.60;;;;;;;7.71;87.57;101177.59;5241062;28;20148;-66
2022/03/13 04:05:13;;;;;;;19.35;13.50;;;;;;;7.78;88.61;101176.28;5240825;28;20028;-66
2022/03/13 04:07:44;;;;;;;19.38;13.75;;;;;;;7.79;88.02;101178.84;5247602;28;20048;-67
2022/03/13 04:10:15;;;;;;;19.80;14.30;;;;;;;7.78;87.79;101179.78;5240678;28;20110;-66
2022/03/13 04:12:47;;;;;;;20.83;14.52;;;;;;;7.68;88.49;101175.97;5240283;28;20845;-66
2022/03/13 04:15:18;;;;;;;21.65;15.25;;;;;;;7.64;89.75;101167.34;5242039;28;20116;-66
2022/03/13 04:17:50;;;;;;;22.25;15.15;;;;;;;7.63;90.22;101175.38;5248072;28;20033;-66
2022/03/13 04:20:21;;;;;;;22.58;16.27;;;;;;;7.65;91.49;101170.84;5248105;28;20037;-66
2022/03/13 04:22:52;;;;;;;21.90;15.70;;;;;;;7.61;89.08;101166.66;5237699;28;20053;-66
2022/03/13 04:25:25;;;;;;;23.40;16.20;;;;;;;7.61;89.43;101175.50;5240493;28;20399;-66
2022/03/13 04:27:59;;;;;;;24.50;17.10;;;;;;;7.53;89.89;101174.22;5242875;28;20064;-66
2022/03/13 04:30:31;;;;;;;26.27;16.90;;;;;;;7.46;91.43;101179.91;5242815;28;20036;-66
2022/03/13 04:33:02;;;;;;;24.88;17.52;;;;;;;7.49;93.22;101178.00;5239703;28;20032;-66
2022/03/13 04:35:33;;;;;;;27.58;19.05;;;;;;;7.43;93.85;101173.91;5249893;28;20036;-65
2022/03/13 04:38:05;;;;;;;28.98;19.52;;;;;;;7.42;95.22;101180.16;5246867;28;20028;-65
2022/03/13 04:40:36;;;;;;;28.38;19.85;;;;;;;7.40;97.32;101163.47;5242492;28;20033;-65
2022/03/13 04:43:08;;;;;;;31.95;21.52;;;;;;;7.33;99.28;101162.97;5242215;28;20043;-66
2022/03/13 04:45:40;;;;;;;30.55;20.70;;;;;;;7.23;99.27;101162.66;5241919;28;20029;-66
2022/03/13 04:48:11;;;;;;;30.00;21.35;;;;;;;7.13;99.90;101166.75;5242030;28;20213;-66
2022/03/13 04:50:44;;;;;;;35.35;22.67;;;;;;;7.13;100.00;101174.72;5249238;28;20039;-67
2022/03/13 04:53:15;;;;;;;31.48;21.67;;;;;;;7.04;100.00;101170.81;5250060;28;20071;-66
2022/03/13 04:55:47;;;;;;;30.50;21.92;;;;;;;7.03;100.00;101170.88;5246774;28;20033;-66
2022/03/13 04:58:19;;;;;;;32.78;22.42;;;;;;;6.95;100.00;101168.66;5247658;28;20070;-66
2022/03/13 05:00:50;;;;;;;29.48;21.20;;;;;;;6.93;100.00;101175.00;5243401;28;20036;-66
2022/03/13 05:03:22;;;;;;;34.83;22.80;;;;;;;6.85;100.00;101167.47;5249932;28;20037;-66
2022/03/13 05:05:56;;;;;;;32.22;21.85;;;;;;;6.78;100.00;101163.44;5253032;28;20483;-66
2022/03/13 05:08:28;;;;;;;31.50;21.75;;;;;;;6.70;100.00;101155.91;5243361;28;20052;-66
2022/03/13 05:10:59;;;;;;;34.17;22.67;;;;;;;6.67;100.00;101162.25;5244611;28;20637;-66
2022/03/13 05:13:31;;;;;;;32.47;22.73;;;;;;;6.61;100.00;101153.75;5250137;28;20045;-66
2022/03/13 05:16:03;;;;;;;31.77;22.10;;;;;;;6.60;100.00;101157.38;5241237;28;20938;-66
2022/03/13 05:18:34;;;;;;;31.55;20.38;;;;;;;6.56;100.00;101156.69;5247197;28;21382;-66
2022/03/13 05:21:05;;;;;;;31.30;21.63;;;;;;;6.59;100.00;101156.50;5244548;28;20045;-66
2022/03/13 05:23:37;;;;;;;32.58;22.25;;;;;;;6.56;100.00;101155.81;5246023;28;20103;-66
2022/03/13 05:26:08;;;;;;;35.38;22.63;;;;;;;6.57;100.00;101162.81;5240645;28;20111;-66
2022/03/13 05:28:40;;;;;;;31.20;20.52;;;;;;;6.52;100.00;101154.25;5249365;28;20028;-66
2022/03/13 05:31:11;;;;;;;32.67;21.23;;;;;;;6.47;100.00;101159.81;5246283;28;20029;-66
2022/03/13 05:33:43;;;;;;;33.20;21.10;;;;;;;6.49;100.00;101163.25;5243694;28;20041;-66
2022/03/13 05:36:14;;;;;;;32.25;22.05;;;;;;;6.48;100.00;101162.41;5244575;28;20036;-66
2022/03/13 05:38:46;;;;;;;29.60;20.80;;;;;;;6.48;100.00;101158.88;5243414;28;20418;-66
2022/03/13 05:41:18;;;;;;;31.83;20.92;;;;;;;6.45;100.00;101161.72;5256882;28;20029;-66
2022/03/13 05:43:50;;;;;;;28.80;20.50;;;;;;;6.44;100.00;101159.97;5245700;28;20465;-66
2022/03/13 05:46:21;;;;;;;31.60;21.25;;;;;;;6.39;100.00;101159.41;5241027;28;20147;-66
2022/03/13 05:48:53;;;;;;;29.40;19.77;;;;;;;6.35;100.00;101171.94;5242523;28;20033;-66
2022/03/13 05:51:25;;;;;;;30.60;20.67;;;;;;;6.37;100.00;101162.13;5253743;28;20029;-66
2022/03/13 05:53:56;;;;;;;27.92;19.38;;;;;;;6.42;100.00;101175.09;5244361;28;20444;-67
2022/03/13 05:56:28;;;;;;;29.45;19.77;;;;;;;6.39;100.00;101167.34;5246554;28;20039;-66
2022/03/13 05:58:59;;;;;;;30.83;19.88;;;;;;;6.33;100.00;101173.81;5251457;28;20579;-66
2022/03/13 06:01:30;;;;;;;29.65;20.08;;;;;;;6.33;100.00;101172.94;5246520;28;20055;-66
2022/03/13 06:04:01;;;;;;;25.73;18.50;;;;;;;6.34;100.00;101159.63;5242220;28;20044;-66
2022/03/13 06:06:33;;;;;;;26.88;18.80;;;;;;;6.36;100.00;101173.66;5243979;28;20481;-66
2022/03/13 06:09:04;;;;;;;29.55;20.08;;;;;;;6.38;100.00;101174.41;5244326;28;20140;-66
2022/03/13 06:11:35;;;;;;;26.95;18.83;;;;;;;6.35;100.00;101181.66;5240771;28;20613;-66
2022/03/13 06:14:06;;;;;;;27.30;18.50;;;;;;;6.31;100.00;101172.19;5240709;28;20510;-66
2022/03/13 06:16:38;;;;;;;28.90;18.98;;;;;;;6.28;100.00;101173.22;5242931;28;20332;-66
2022/03/13 06:19:09;;;;;;;28.35;20.08;;;;;;;6.30;100.00;101168.69;5241951;28;20348;-66
2022/03/13 06:21:41;;;;;;;27.55;19.67;;;;;;;6.35;100.00;101176.38;5241393;28;20029;-66
2022/03/13 06:24:12;;;;;;;27.50;19.48;;;;;;;6.38;100.00;101166.47;5244399;28;20025;-66
2022/03/13 06:26:44;;;;;;;24.40;17.50;;;;;;;6.34;100.00;101167.56;5235264;28;20041;-66
2022/03/13 06:29:15;;;;;;;27.95;19.02;;;;;;;6.39;100.00;101170.00;5241014;28;20458;-66
2022/03/13 06:31:47;;;;;;;27.63;18.27;;;;;;;6.35;99.59;101179.03;5237242;28;20131;-66
2022/03/13 06:34:18;;;;;;;26.23;17.85;;;;;;;6.32;99.84;101185.34;5242618;28;20036;-66
2022/03/13 06:36:50;;;;;;;26.17;17.75;;;;;;;6.30;100.00;101176.63;5240789;28;20333;-66
2022/03/13 06:39:22;;;;;;;24.02;17.45;;;;;;;6.35;100.00;101184.31;5240331;28;20067;-66
2022/03/13 06:41:53;;;;;;;25.73;18.33;;;;;;;6.38;100.00;101185.00;5242123;28;20040;-66
2022/03/13 06:44:25;;;;;;;29.73;19.65;;;;;;;6.35;100.00;101181.66;5235650;28;20079;-66
2022/03/13 06:46:56;;;;;;;25.05;17.85;;;;;;;6.41;100.00;101171.63;5244788;28;20075;-66
2022/03/13 06:49:27;;;;;;;26.05;18.23;;;;;;;6.44;99.92;101176.75;5244073;28;20061;-67
2022/03/13 06:51:58;;;;;;;28.10;18.27;;;;;;;6.46;99.18;101172.22;5245139;28;20033;-66
2022/03/13 06:54:30;;;;;;;28.48;18.85;;;;;;;6.45;100.00;101170.50;5242361;28;20029;-66
2022/03/13 06:57:01;;;;;;;27.52;18.75;;;;;;;6.54;100.00;101173.59;5245309;28;20052;-67
2022/03/13 06:59:32;;;;;;;26.27;18.85;;;;;;;6.55;100.00;101178.81;5243078;28;20021;-66
2022/03/13 07:02:04;;;;;;;26.40;18.77;;;;;;;6.61;100.00;101178.47;5244101;28;20116;-67
2022/03/13 07:04:35;;;;;;;26.73;18.88;;;;;;;6.64;100.00;101169.50;5245724;28;20036;-66
2022/03/13 07:07:07;;;;;;;24.92;17.27;;;;;;;6.63;96.88;101171.28;5243108;28;20464;-66
2022/03/13 07:09:38;;;;;;;23.52;17.77;;;;;;;6.66;98.76;101178.25;5243885;28;20487;-66
2022/03/13 07:12:11;;;;;;;24.20;17.45;;;;;;;6.63;98.20;101173.94;5242542;28;20037;-66
2022/03/13 07:14:45;;;;;;;24.38;17.65;;;;;;;6.73;98.59;101174.31;5242664;28;20087;-66
2022/03/13 07:17:17;;;;;;;25.60;17.63;;;;;;;6.70;99.39;101178.94;5241153;28;21934;-66
2022/03/13 07:19:48;;;;;;;25.80;17.98;;;;;;;6.77;99.63;101174.97;5238196;28;20037;-66
2022/03/13 07:22:19;;;;;;;24.15;17.27;;;;;;;6.78;99.27;101180.19;5240326;28;20025;-66
2022/03/13 07:24:51;;;;;;;28.58;18.90;;;;;;;6.78;100.00;101174.91;5237889;28;20096;-66
2022/03/13 07:27:22;;;;;;;27.27;17.52;;;;;;;6.82;98.80;101172.94;5237152;28;20116;-66
2022/03/13 07:29:53;;;;;;;28.38;17.83;;;;;;;6.81;98.77;101165.94;5239658;28;20029;-66
2022/03/13 07:32:24;;;;;;;25.95;18.42;;;;;;;6.83;99.24;101162.25;5239342;28;20040;-66
2022/03/13 07:34:56;;;;;;;24.23;17.15;;;;;;;6.94;97.99;101166.09;5237148;28;20065;-66
2022/03/13 07:37:27;;;;;;;22.15;15.73;;;;;;;7.07;97.35;101167.09;5241601;28;20497;-67
2022/03/13 07:39:59;;;;;;;24.55;16.65;;;;;;;7.27;96.24;101173.94;5241284;28;20652;-67
2022/03/13 07:42:30;;;;;;;24.48;16.55;;;;;;;7.33;93.28;101176.25;5242596;28;20396;-66
2022/03/13 07:45:01;;;;;;;23.33;16.65;;;;;;;7.44;90.80;101167.63;5241535;28;20036;-66
2022/03/13 07:47:33;;;;;;;23.73;16.77;;;;;;;7.56;90.56;101163.44;5242542;28;20032;-66
2022/03/13 07:50:05;;;;;;;21.52;15.27;;;;;;;7.60;88.31;101155.19;5245049;28;20036;-66
2022/03/13 07:52:36;;;;;;;22.33;16.00;;;;;;;7.72;90.01;101168.69;5244005;28;20032;-66
2022/03/13 07:55:08;;;;;;;22.45;16.42;;;;;;;7.80;87.99;101169.94;5242687;28;20033;-66
2022/03/13 07:57:40;;;;;;;22.83;15.75;;;;;;;7.87;88.54;101169.59;5242316;28;20660;-66
2022/03/13 08:00:12;;;;;;;20.80;15.70;;;;;;;7.88;85.84;101169.50;5244514;28;20032;-66
2022/03/13 08:02:48;;;;;;;21.85;15.93;;;;;;;7.98;85.66;101172.44;5273945;28;20080;-66
2022/03/13 08:05:23;;;;;;;22.17;15.98;;;;;;;8.03;86.81;101165.91;5242823;28;20407;-66
2022/03/13 08:07:56;;;;;;;22.85;16.10;;;;;;;8.16;84.66;101167.81;5241686;28;20041;-66
2022/03/13 08:10:28;;;;;;;23.23;16.10;;;;;;;8.25;86.89;101167.25;5242365;28;20049;-66
2022/03/13 08:13:00;;;;;;;19.60;15.73;;;;;;;8.36;84.68;101167.44;5243277;28;21534;-66
2022/03/13 08:15:31;;;;;;;21.52;16.02;;;;;;;8.48;82.69;101165.84;5239471;28;20029;-66
2022/03/13 08:18:02;;;;;;;22.40;15.70;;;;;;;8.62;84.51;101164.97;5251676;28;20033;-66
2022/03/13 08:20:34;;;;;;;21.92;14.90;;;;;;;8.77;82.64;101163.16;5249687;28;20640;-66
2022/03/13 08:23:06;;;;;;;20.40;14.88;;;;;;;8.88;81.20;101168.66;5247690;28;20017;-66
2022/03/13 08:25:37;;;;;;;21.80;16.02;;;;;;;8.96;82.10;101165.50;5248375;28;20087;-67
2022/03/13 08:28:08;;;;;;;22.38;15.05;;;;;;;9.02;78.93;101157.94;5250618;28;20107;-66
2022/03/13 08:30:40;;;;;;;21.60;15.00;;;;;;;9.11;80.13;101153.84;5249239;28;20028;-67
2022/03/13 08:33:12;;;;;;;21.05;14.70;;;;;;;9.27;79.49;101156.34;5257394;28;20345;-67
2022/03/13 08:35:43;;;;;;;21.63;14.60;;;;;;;9.37;77.74;101165.44;5241617;28;20025;-66
2022/03/13 08:38:15;;;;;;;20.65;15.50;;;;;;;9.48;79.51;101158.56;5252919;28;20025;-66
2022/03/13 08:40:46;;;;;;;21.25;15.25;;;;;;;9.58;79.96;101171.13;5251375;28;20470;-66
2022/03/13 08:43:18;;;;;;;21.23;15.48;;;;;;;9.68;80.55;101159.84;5251062;28;20025;-66
2022/03/13 08:45:49;;;;;;;23.92;16.63;;;;;;;9.86;76.64;101163.94;5249636;28;20168;-66
2022/03/13 08:48:21;;;;;;;19.65;14.95;;;;;;;9.92;75.81;101168.84;5248945;28;20478;-66
2022/03/13 08:50:52;;;;;;;20.70;14.05;;;;;;;10.02;76.40;101163.75;5247543;28;20060;-66
2022/03/13 08:53:24;;;;;;;21.65;14.30;;;;;;;10.08;74.98;101157.13;5249797;28;20037;-66
2022/03/13 08:55:55;;;;;;;20.83;14.90;;;;;;;10.15;75.45;101161.94;5250579;28;20025;-66
2022/03/13 08:58:26;;;;;;;21.40;14.68;;;;;;;10.13;72.25;101153.19;5254341;28;20367;-66
2022/03/13 09:00:58;;;;;;;21.15;15.38;;;;;;;10.16;73.32;101157.44;5245665;28;20032;-66
2022/03/13 09:03:29;;;;;;;20.20;15.20;;;;;;;10.23;73.83;101155.22;5247493;28;20057;-66
2022/03/13 09:06:00;;;;;;;20.73;15.40;;;;;;;10.25;73.85;101151.47;5252316;28;20033;-66
2022/03/13 09:08:31;;;;;;;23.35;15.55;;;;;;;10.23;72.06;101153.41;5242033;28;20047;-66
2022/03/13 09:11:03;;;;;;;23.15;15.63;;;;;;;10.28;73.51;101153.94;5242301;28;20451;-66
2022/03/13 09:13:36;;;;;;;20.45;15.68;;;;;;;10.43;73.08;101149.34;5242767;28;20558;-66
2022/03/13 09:16:07;;;;;;;20.40;15.00;;;;;;;10.52;71.09;101145.19;5240640;28;21183;-66
2022/03/13 09:18:39;;;;;;;20.60;15.57;;;;;;;10.58;72.53;101150.06;5241526;28;20086;-66
2022/03/13 09:21:11;;;;;;;23.30;15.88;;;;;;;10.66;73.14;101145.06;5242309;28;20033;-67
2022/03/13 09:23:42;;;;;;;21.98;15.05;;;;;;;10.74;71.11;101142.66;5248435;28;20379;-66
2022/03/13 09:26:13;;;;;;;21.83;15.43;;;;;;;10.88;68.77;101138.16;5240829;28;20483;-66
2022/03/13 09:28:44;;;;;;;20.23;15.25;;;;;;;10.90;68.05;101138.88;5239123;28;20120;-66
2022/03/13 09:31:16;;;;;;;20.27;14.98;;;;;;;10.95;70.81;101144.75;5247626;28;20060;-67
2022/03/13 09:33:47;;;;;;;21.33;14.93;;;;;;;11.06;67.46;101136.78;5244773;28;20037;-67
2022/03/13 09:36:19;;;;;;;20.90;14.90;;;;;;;11.21;66.87;101142.81;5242793;28;20028;-66
2022/03/13 09:38:51;;;;;;;18.75;13.52;;;;;;;11.26;67.06;101146.00;5251851;28;20582;-67
2022/03/13 09:41:22;;;;;;;19.40;14.05;;;;;;;11.37;68.24;101145.16;5249541;28;20076;-67
2022/03/13 09:43:53;;;;;;;20.10;14.02;;;;;;;11.50;66.25;101143.28;5247293;28;20387;-68
2022/03/13 09:46:25;;;;;;;20.85;14.27;;;;;;;11.65;67.63;101143.09;5251679;28;20510;-67
2022/03/13 09:48:57;;;;;;;21.42;14.52;;;;;;;11.80;66.91;101139.25;5254481;28;20025;-67
2022/03/13 09:51:28;;;;;;;20.25;12.85;;;;;;;11.90;63.65;101134.06;5246891;28;20037;-67
2022/03/13 09:54:02;;;;;;;17.98;12.73;;;;;;;11.89;64.67;101143.03;5246419;28;20037;-67
2022/03/13 09:56:35;;;;;;;16.83;12.38;;;;;;;12.07;63.88;101143.47;5245552;28;20027;-67
2022/03/13 09:59:07;;;;;;;18.02;13.05;;;;;;;12.13;63.34;101142.97;5250878;28;20040;-68
2022/03/13 10:01:39;;;;;;;18.58;12.50;;;;;;;12.15;64.44;101135.69;5244246;28;20021;-66
2022/03/13 10:04:12;;;;;;;19.40;12.20;;;;;;;12.24;62.09;101134.13;5253525;28;20048;-66
2022/03/13 10:07:04;;;;;;;17.60;12.93;;;;;;;12.26;65.15;101134.84;5250006;28;20872;-66
2022/03/13 10:09:38;;;;;;;17.90;12.48;;;;;;;12.39;63.11;101132.91;5249912;28;20788;-66
2022/03/13 10:12:14;;;;;;;;;;;;;;;12.28;65.31;101127.56;5245203;28;20064;-66
2022/03/13 10:15:05;;;;;;;16.50;11.95;;;;;;;12.42;63.64;101129.13;5245200;28;19924;-67
2022/03/13 10:17:37;;;;;;;16.48;11.68;;;;;;;12.54;59.82;101128.13;5247468;28;20115;-67
2022/03/13 10:20:23;;;;;;;15.10;11.32;;;;;;;12.60;61.22;101121.44;5254754;28;20036;-67
2022/03/13 10:23:05;;;;;;;16.73;11.60;;;;;;;12.69;60.77;101126.03;5247564;28;20111;-67
2022/03/13 10:25:41;;;;;;;19.38;12.13;;;;;;;12.80;61.53;101112.63;5239369;28;20032;-66
2022/03/13 10:28:30;;;;;;;16.60;12.10;;;;;;;12.91;62.00;101109.09;5243184;28;20033;-66
2022/03/13 10:31:02;;;;;;;14.90;11.07;;;;;;;12.93;61.43;101109.81;5243935;28;20540;-66
2022/03/13 10:33:42;;;;;;;14.52;10.70;;;;;;;13.04;60.98;101111.59;5242874;28;20037;-69
2022/03/13 10:36:35;;;;;;;14.95;10.73;;;;;;;13.12;60.83;101101.97;5243413;28;20028;-66
2022/03/13 10:39:17;;;;;;;17.67;10.60;;;;;;;13.10;60.01;101098.56;5242728;28;20037;-66
2022/03/13 10:41:59;;;;;;;14.70;11.20;;;;;;;13.16;58.97;101099.03;5245781;28;20029;-68
2022/03/13 10:44:34;;;;;;;14.73;9.90;;;;;;;13.21;57.88;101103.03;5248071;28;20336;-67
2022/03/13 10:47:08;;;;;;;14.15;9.88;;;;;;;13.22;57.54;101104.72;5246622;28;20017;-67
2022/03/13 10:49:43;;;;;;;14.48;9.98;;;;;;;13.25;56.69;101095.56;5243948;28;20086;-67
2022/03/13 10:52:29;;;;;;;12.50;9.88;;;;;;;13.29;57.03;101095.19;5249678;28;20063;-67
2022/03/13 10:55:19;;;;;;;15.75;10.43;;;;;;;13.30;58.14;101093.38;5248589;28;20029;-68
2022/03/13 10:57:53;;;;;;;15.48;10.10;;;;;;;13.33;56.71;101087.78;5242826;28;20029;-69
2022/03/13 11:00:24;;;;;;;13.68;10.13;;;;;;;13.29;58.27;101089.81;5244879;28;20747;-68
2022/03/13 11:03:13;;;;;;;13.90;10.70;;;;;;;13.31;57.63;101085.22;5247653;28;20033;-68
2022/03/13 11:05:44;;;;;;;14.77;9.65;;;;;;;13.32;59.06;101086.06;5240384;28;20429;-68
2022/03/13 11:08:15;;;;;;;13.32;10.32;;;;;;;13.45;56.58;101084.03;5250527;28;20032;-68
2022/03/13 11:10:48;;;;;;;14.60;9.98;;;;;;;13.61;55.60;101083.56;5242413;28;20118;-68
2022/03/13 11:13:23;;;;;;;14.77;10.68;;;;;;;13.78;55.27;101083.97;5256682;28;20052;-68
2022/03/13 11:15:58;;;;;;;13.65;9.90;;;;;;;13.90;55.29;101080.22;5241131;28;20044;-68
2022/03/13 11:18:33;;;;;;;12.27;8.90;;;;;;;13.91;55.92;101080.09;5251440;28;20083;-68
2022/03/13 11:21:08;;;;;;;13.60;9.23;;;;;;;13.86;56.44;101068.91;5240627;28;20112;-68
2022/03/13 11:23:39;;;;;;;12.23;9.30;;;;;;;13.89;57.23;101070.50;5253419;28;20021;-68
2022/03/13 11:26:14;;;;;;;12.63;10.13;;;;;;;14.03;56.90;101071.97;5247857;28;20048;-68
2022/03/13 11:28:48;;;;;;;12.60;9.73;;;;;;;14.17;54.24;101065.38;5244736;28;20063;-68
2022/03/13 11:31:41;;;;;;;13.70;10.43;;;;;;;14.15;56.74;101061.97;5241710;28;20495;-68
2022/03/13 11:34:16;;;;;;;15.40;10.68;;;;;;;14.24;54.21;101055.81;5248209;28;20071;-69
2022/03/13 11:36:51;;;;;;;13.73;10.35;;;;;;;14.22;54.09;101060.47;5246025;28;20467;-68
2022/03/13 11:39:26;;;;;;;12.20;9.40;;;;;;;14.34;54.33;101058.50;5238847;28;20048;-68
2022/03/13 11:41:58;;;;;;;14.02;9.93;;;;;;;14.32;53.03;101062.19;5247518;28;20026;-68